Time;durP1;ratioP1;P1;durP2;ratioP2;P2;SDS_P1;SDS_P2;PMS_P1;PMS_P2;Temp;Humidity;BMP_temperature;BMP_pressure;BME280_temperature;BME280_humidity;BME280_pressure;Samples;Min_cycle;Max_cycle;Signal;HPM_P1;HPM_P2
2020/12/02 05:32:36;;;;;;;21.13;11.70;;;2.00;99.90;;;;;;4082922;27;20757;-87
2020/12/02 05:38:53;;;;;;;19.13;10.70;;;2.00;99.90;;;;;;4056548;35;20679;-87
2020/12/02 05:41:45;;;;;;;;;;;;;;;;;;;;;
2020/12/02 05:45:09;;;;;;;17.07;9.93;;;2.00;99.90;;;;;;4095631;35;20307;-87
2020/12/02 06:14:00;;;;;;;18.83;11.10;;;1.80;99.90;;;;;;4156193;26;20281;-86
2020/12/02 06:16:39;;;;;;;16.90;10.53;;;1.90;99.90;;;;;;4109130;35;20623;-85
2020/12/02 06:19:32;;;;;;;19.37;10.03;;;1.90;99.90;;;;;;4121580;34;20316;-83
2020/12/02 06:22:17;;;;;;;21.83;11.87;;;1.80;99.90;;;;;;4144753;26;20320;-85
2020/12/02 06:28:42;;;;;;;22.13;11.07;;;1.70;99.90;;;;;;4096289;27;20400;-85
2020/12/02 06:31:24;;;;;;;18.93;11.20;;;1.70;99.90;;;;;;4090087;27;20719;-86
2020/12/02 06:33:55;;;;;;;18.93;10.53;;;1.80;99.90;;;;;;4119743;34;20313;-86
2020/12/02 06:36:33;;;;;;;21.40;11.60;;;1.80;99.90;;;;;;4115588;27;20867;-86
2020/12/02 06:39:11;;;;;;;20.13;10.83;;;1.70;99.90;;;;;;4120584;34;20427;-85
2020/12/02 06:41:40;;;;;;;23.50;13.53;;;1.80;99.90;;;;;;4119645;34;20360;-85
2020/12/02 06:44:11;;;;;;;20.40;11.13;;;1.80;99.90;;;;;;4146355;34;20683;-85
2020/12/02 06:46:59;;;;;;;18.67;10.47;;;1.80;99.90;;;;;;4138816;34;20341;-84
2020/12/02 06:49:35;;;;;;;20.90;11.20;;;1.80;99.90;;;;;;4141794;26;20625;-87
2020/12/02 06:52:38;;;;;;;21.07;11.57;;;1.80;99.90;;;;;;4140152;27;20342;-86
2020/12/02 06:55:25;;;;;;;20.37;11.60;;;1.80;99.90;;;;;;4151613;27;20281;-91
2020/12/02 07:00:25;;;;;;;21.10;11.10;;;1.80;99.90;;;;;;4163628;26;20284;-88
2020/12/02 07:03:02;;;;;;;20.80;11.43;;;1.90;99.90;;;;;;4143111;27;20655;-86
2020/12/02 07:05:34;;;;;;;19.30;11.20;;;1.90;99.90;;;;;;4134740;27;20304;-87
2020/12/02 07:08:10;;;;;;;17.83;9.93;;;1.90;99.90;;;;;;4133618;27;20305;-88
2020/12/02 07:10:37;;;;;;;19.07;10.80;;;1.90;99.90;;;;;;4132793;27;20345;-87
2020/12/02 07:13:05;;;;;;;15.47;9.80;;;1.90;99.90;;;;;;4122571;34;20362;-87
2020/12/02 07:15:31;;;;;;;14.73;10.10;;;1.90;99.90;;;;;;4127241;34;20316;-88
2020/12/02 07:18:12;;;;;;;18.57;11.10;;;1.90;99.90;;;;;;4132855;34;20232;-87
2020/12/02 07:20:37;;;;;;;18.57;10.90;;;1.90;99.90;;;;;;4144708;26;20313;-88
2020/12/02 07:23:04;;;;;;;17.17;9.87;;;1.90;99.90;;;;;;4131369;34;20316;-87
2020/12/02 07:25:29;;;;;;;18.20;10.70;;;1.90;99.90;;;;;;4132287;34;20315;-87
2020/12/02 07:27:55;;;;;;;19.07;11.63;;;1.90;99.90;;;;;;4134295;34;20842;-87
2020/12/02 07:30:36;;;;;;;15.90;11.40;;;1.90;99.90;;;;;;4145986;34;20215;-88
2020/12/02 07:33:25;;;;;;;20.57;11.50;;;2.00;99.90;;;;;;4118729;35;20344;-89
2020/12/02 07:36:23;;;;;;;19.07;11.33;;;2.00;99.90;;;;;;4137196;34;20312;-88
2020/12/02 07:38:59;;;;;;;16.73;9.67;;;2.00;99.90;;;;;;4139518;27;20318;-87
2020/12/02 07:41:25;;;;;;;16.77;10.27;;;2.10;99.90;;;;;;4129805;27;20306;-86
2020/12/02 07:43:51;;;;;;;16.47;10.43;;;2.00;99.90;;;;;;4130593;34;20302;-89
2020/12/02 07:46:21;;;;;;;20.63;11.20;;;2.00;99.90;;;;;;4152494;26;20202;-89
2020/12/02 07:48:50;;;;;;;20.37;10.50;;;1.90;99.90;;;;;;4131796;34;20293;-87
2020/12/02 07:51:27;;;;;;;15.90;10.33;;;1.90;99.90;;;;;;4131009;27;20333;-88
2020/12/02 07:54:14;;;;;;;18.60;11.13;;;1.90;99.90;;;;;;4129945;34;20394;-88
2020/12/02 07:56:41;;;;;;;21.80;12.37;;;1.90;99.90;;;;;;4128265;34;20301;-88
2020/12/02 07:59:24;;;;;;;20.63;11.07;;;1.90;99.90;;;;;;4130989;27;20344;-88
2020/12/02 08:01:58;;;;;;;21.60;11.17;;;2.00;99.90;;;;;;4129397;34;20360;-89
2020/12/02 08:04:32;;;;;;;18.33;11.37;;;1.90;99.90;;;;;;4130497;34;20349;-88
2020/12/02 08:07:03;;;;;;;19.50;11.00;;;2.00;99.90;;;;;;4132117;34;20320;-89
2020/12/02 09:19:05;;;;;;;10.67;6.33;;;2.60;99.90;;;;;;4141846;26;20340;-88
2020/12/02 09:21:31;;;;;;;9.63;6.80;;;2.60;99.90;;;;;;4166998;26;20407;-89
2020/12/02 09:23:58;;;;;;;10.57;7.73;;;2.70;99.90;;;;;;4167679;34;20313;-91
2020/12/02 09:26:29;;;;;;;10.13;6.30;;;2.70;99.90;;;;;;4180424;26;20285;-89
2020/12/02 09:29:00;;;;;;;7.67;5.83;;;2.70;99.90;;;;;;4171295;34;20316;-91
2020/12/02 09:42:07;;;;;;;9.80;6.97;;;2.80;99.90;;;;;;4187756;26;20321;-88
2020/12/02 10:01:05;;;;;;;11.40;7.30;;;3.10;99.90;;;;;;4170554;26;20318;-86
2020/12/02 10:03:44;;;;;;;12.90;7.80;;;3.20;99.90;;;;;;4136455;27;20788;-87
2020/12/02 10:06:16;;;;;;;10.27;7.20;;;3.20;99.90;;;;;;4158417;26;20308;-87
2020/12/02 10:09:21;;;;;;;16.67;11.00;;;3.20;99.90;;;;;;4149965;26;20368;-87
2020/12/02 10:12:05;;;;;;;13.27;8.10;;;3.40;99.90;;;;;;4153625;27;20413;-86
2020/12/02 10:15:10;;;;;;;14.30;9.50;;;3.40;99.90;;;;;;4155695;26;20659;-85
2020/12/02 10:17:54;;;;;;;15.13;8.97;;;3.40;99.90;;;;;;4152907;34;20333;-87
2020/12/02 10:20:43;;;;;;;16.10;9.87;;;3.30;99.90;;;;;;4162053;26;20320;-85
2020/12/02 10:23:15;;;;;;;14.13;9.47;;;3.20;99.90;;;;;;4156213;26;20349;-85
2020/12/02 10:26:16;;;;;;;14.17;9.30;;;3.10;99.90;;;;;;4154319;26;20317;-85
2020/12/02 10:29:12;;;;;;;16.53;9.90;;;3.10;99.90;;;;;;4120429;27;20621;-82
2020/12/02 10:32:14;;;;;;;16.80;9.40;;;3.00;99.90;;;;;;4153622;26;20327;-83
2020/12/02 10:34:48;;;;;;;16.73;11.03;;;3.00;99.90;;;;;;4140275;26;20368;-84
2020/12/02 10:37:20;;;;;;;18.33;10.40;;;3.00;99.90;;;;;;4146761;27;20406;-82
2020/12/02 10:39:46;;;;;;;16.70;10.80;;;3.10;99.90;;;;;;4152097;26;20757;-82
2020/12/02 10:42:29;;;;;;;16.23;10.10;;;3.20;99.90;;;;;;4152372;34;20592;-85
2020/12/02 10:45:25;;;;;;;16.70;10.40;;;3.20;99.90;;;;;;4158474;34;20314;-87
2020/12/02 10:48:02;;;;;;;17.20;10.47;;;3.20;99.90;;;;;;4166431;26;20380;-85
2020/12/02 11:01:03;;;;;;;20.70;11.60;;;3.20;99.90;;;;;;4115351;27;20314;-90
2020/12/02 11:03:52;;;;;;;20.57;11.80;;;3.10;99.90;;;;;;4096166;35;20329;-87
2020/12/02 11:10:37;;;;;;;22.23;12.47;;;3.00;99.90;;;;;;4137174;34;20297;-86
2020/12/02 11:13:38;;;;;;;17.47;11.10;;;2.90;99.90;;;;;;4148510;27;20379;-85
2020/12/02 11:16:30;;;;;;;;;;;;;;;;;;;;;
2020/12/02 11:23:10;;;;;;;19.03;11.50;;;2.70;99.90;;;;;;4161846;26;20441;-85
2020/12/02 11:26:00;;;;;;;20.43;11.83;;;2.70;99.90;;;;;;4148506;34;20312;-85
2020/12/02 11:28:34;;;;;;;22.17;11.90;;;2.70;99.90;;;;;;4156638;26;20555;-85
2020/12/02 11:42:01;;;;;;;19.73;11.47;;;2.70;99.90;;;;;;4097809;27;20301;-86
2020/12/02 11:45:03;;;;;;;22.60;12.97;;;2.60;99.90;;;;;;4097834;27;20660;-86
2020/12/02 11:48:17;;;;;;;21.63;12.93;;;2.90;99.90;;;;;;4108931;35;20692;-86
2020/12/02 11:51:26;;;;;;;24.77;13.20;;;2.80;99.90;;;;;;4097080;35;20319;-87
2020/12/02 11:57:05;;;;;;;20.73;12.10;;;2.70;99.90;;;;;;4091051;27;20378;-85
2020/12/02 11:59:34;;;;;;;22.57;12.87;;;2.70;99.90;;;;;;4142647;26;20316;-86
2020/12/02 12:02:29;;;;;;;24.50;13.43;;;2.70;99.90;;;;;;4160286;26;20328;-86
2020/12/02 12:05:55;;;;;;;23.20;12.90;;;2.70;99.90;;;;;;4149689;34;20285;-87
2020/12/02 12:08:29;;;;;;;25.33;13.63;;;2.70;99.90;;;;;;4100812;35;20306;-86
2020/12/02 12:10:59;;;;;;;20.80;13.03;;;2.80;99.90;;;;;;4156494;27;20335;-86
2020/12/02 12:13:53;;;;;;;21.90;12.40;;;2.60;99.90;;;;;;4152469;34;20382;-87
2020/12/02 12:16:54;;;;;;;27.73;14.00;;;2.70;99.90;;;;;;4149388;34;20301;-84
2020/12/02 12:19:40;;;;;;;26.40;13.90;;;2.50;99.90;;;;;;4150891;34;20316;-84
2020/12/02 12:22:25;;;;;;;24.70;14.00;;;2.40;99.90;;;;;;4152170;34;20301;-85
2020/12/02 12:24:57;;;;;;;24.93;13.60;;;2.40;99.90;;;;;;4153063;26;20329;-85
2020/12/02 12:27:24;;;;;;;27.00;13.47;;;2.40;99.90;;;;;;4151395;34;20296;-87
2020/12/02 12:29:50;;;;;;;20.50;13.23;;;2.40;99.90;;;;;;4154207;26;20692;-86
2020/12/02 12:32:55;;;;;;;30.70;14.40;;;2.30;99.90;;;;;;4151010;34;20345;-86
2020/12/02 12:35:34;;;;;;;24.90;13.97;;;2.30;99.90;;;;;;4152117;34;20830;-87
2020/12/02 12:38:09;;;;;;;25.77;13.40;;;2.40;99.90;;;;;;4145238;26;20324;-85
2020/12/02 12:40:48;;;;;;;25.87;13.80;;;2.50;99.90;;;;;;4151751;34;20315;-86
2020/12/02 12:43:18;;;;;;;23.60;13.93;;;2.50;99.90;;;;;;4152226;26;20454;-87
2020/12/02 12:45:47;;;;;;;26.17;13.70;;;2.60;99.90;;;;;;4155638;26;20671;-88
2020/12/02 12:48:20;;;;;;;25.50;12.73;;;2.50;99.90;;;;;;4157797;26;20341;-87
2020/12/02 12:50:49;;;;;;;24.17;12.57;;;2.40;99.90;;;;;;4148593;34;20285;-87
2020/12/02 12:53:17;;;;;;;21.27;11.07;;;2.40;99.90;;;;;;4153997;34;20352;-88
2020/12/02 12:55:43;;;;;;;21.77;11.63;;;2.30;99.90;;;;;;4151456;34;20754;-88
2020/12/02 12:58:13;;;;;;;20.10;11.77;;;2.40;99.90;;;;;;4136515;34;20313;-89
2020/12/02 13:00:40;;;;;;;20.40;11.87;;;2.40;99.90;;;;;;4138140;26;20635;-87
2020/12/02 13:03:19;;;;;;;19.03;11.67;;;2.50;99.90;;;;;;4140248;26;20891;-87
2020/12/02 13:05:55;;;;;;;21.50;10.90;;;2.40;99.90;;;;;;4138150;34;20293;-87
2020/12/02 13:08:30;;;;;;;19.13;10.90;;;2.40;99.90;;;;;;4150218;26;20351;-87
2020/12/02 13:11:05;;;;;;;18.43;10.93;;;2.40;99.90;;;;;;4153945;26;20300;-87
2020/12/02 13:13:31;;;;;;;16.70;9.63;;;2.30;99.90;;;;;;4146871;34;20342;-88
2020/12/02 13:16:04;;;;;;;17.00;10.10;;;2.30;99.90;;;;;;4151048;34;20304;-86
2020/12/02 13:19:09;;;;;;;17.47;9.90;;;2.30;99.90;;;;;;4151158;34;20489;-89
2020/12/02 13:21:34;;;;;;;18.40;10.67;;;2.30;99.90;;;;;;4153293;26;20331;-86
2020/12/02 13:24:36;;;;;;;20.80;11.43;;;2.20;99.90;;;;;;4151030;34;20365;-85
2020/12/02 13:27:51;;;;;;;18.63;11.27;;;2.20;99.90;;;;;;4148947;34;20205;-86
2020/12/02 13:30:24;;;;;;;20.40;10.27;;;2.20;99.90;;;;;;4148903;34;20736;-85
2020/12/02 13:33:01;;;;;;;22.17;11.30;;;2.20;99.90;;;;;;4143294;27;20327;-85
2020/12/02 13:35:29;;;;;;;19.47;11.30;;;2.10;99.90;;;;;;4149421;34;20493;-86
2020/12/02 13:38:07;;;;;;;19.27;11.20;;;2.10;99.90;;;;;;4149956;34;20319;-86
2020/12/02 13:40:34;;;;;;;17.90;10.30;;;2.00;99.90;;;;;;4153931;26;20328;-86
2020/12/02 13:43:01;;;;;;;19.00;10.10;;;2.00;99.90;;;;;;4161883;26;20304;-85
2020/12/02 13:45:43;;;;;;;17.00;10.80;;;2.00;99.90;;;;;;4157138;26;20306;-86
2020/12/02 13:48:15;;;;;;;20.13;10.00;;;2.00;99.90;;;;;;4149560;34;20331;-84
2020/12/02 13:50:40;;;;;;;19.87;10.27;;;2.00;99.90;;;;;;4138002;26;20404;-85
2020/12/02 13:53:17;;;;;;;19.03;9.93;;;2.00;99.90;;;;;;4149146;34;20305;-87
2020/12/02 13:56:07;;;;;;;19.10;10.60;;;2.00;99.90;;;;;;4150435;34;20379;-86
2020/12/02 13:59:13;;;;;;;15.40;9.03;;;2.00;99.90;;;;;;4152927;26;20599;-85
2020/12/02 14:01:49;;;;;;;15.73;9.33;;;2.10;99.90;;;;;;4150190;34;20309;-85
2020/12/02 14:04:35;;;;;;;17.57;11.07;;;2.10;99.90;;;;;;4153929;34;20330;-85
2020/12/02 14:07:05;;;;;;;15.50;9.07;;;2.10;99.90;;;;;;4150240;34;20345;-84
2020/12/02 14:09:38;;;;;;;16.00;9.60;;;2.00;99.90;;;;;;4149917;34;20324;-84
2020/12/02 14:12:12;;;;;;;14.27;7.90;;;2.00;99.90;;;;;;4150462;34;20305;-85
2020/12/02 14:14:41;;;;;;;15.60;9.63;;;2.00;99.90;;;;;;4153650;34;20286;-84
2020/12/02 14:17:10;;;;;;;16.00;9.37;;;2.10;99.90;;;;;;4152158;34;20311;-85
2020/12/02 14:19:36;;;;;;;14.73;9.37;;;2.10;99.90;;;;;;4159156;26;20484;-85
2020/12/02 14:22:13;;;;;;;15.57;9.60;;;2.20;99.90;;;;;;4154911;26;20314;-84
2020/12/02 14:24:40;;;;;;;17.70;9.20;;;2.10;99.90;;;;;;4151741;26;20845;-85
2020/12/02 14:27:06;;;;;;;18.90;10.00;;;2.10;99.90;;;;;;4154921;26;20304;-85
2020/12/02 14:29:32;;;;;;;18.70;10.10;;;2.10;99.90;;;;;;4151901;34;20341;-85
2020/12/02 14:31:57;;;;;;;16.90;9.63;;;2.10;99.90;;;;;;4149443;34;20627;-85
2020/12/02 14:34:23;;;;;;;17.70;8.80;;;2.10;99.90;;;;;;4150184;34;20583;-84
2020/12/02 14:36:49;;;;;;;15.47;8.57;;;2.00;99.90;;;;;;4150484;26;20240;-85
2020/12/02 14:39:15;;;;;;;21.60;10.53;;;1.90;99.90;;;;;;4151099;34;20217;-84
2020/12/02 14:41:41;;;;;;;18.30;9.87;;;2.00;99.90;;;;;;4155151;26;20277;-84
2020/12/02 14:44:08;;;;;;;20.63;10.10;;;1.90;99.90;;;;;;4150424;34;20876;-85
2020/12/02 14:46:33;;;;;;;16.20;9.67;;;2.00;99.90;;;;;;4148844;26;20334;-84
2020/12/02 14:48:59;;;;;;;14.03;9.10;;;2.00;99.90;;;;;;4151188;34;20296;-84
2020/12/02 14:51:25;;;;;;;16.63;10.30;;;2.00;99.90;;;;;;4149265;34;20206;-85
2020/12/02 14:53:50;;;;;;;19.53;9.90;;;1.90;99.90;;;;;;4150922;26;20229;-85
2020/12/02 14:56:24;;;;;;;17.37;11.17;;;1.90;99.90;;;;;;4148869;34;20307;-85
2020/12/02 14:59:22;;;;;;;19.27;10.30;;;2.00;99.90;;;;;;4149923;34;20230;-84
2020/12/02 15:01:48;;;;;;;17.70;9.63;;;1.90;99.90;;;;;;4102996;27;20696;-85
2020/12/02 15:04:14;;;;;;;15.90;9.47;;;1.90;99.90;;;;;;4150770;34;20300;-85
2020/12/02 15:06:51;;;;;;;17.10;10.27;;;1.90;99.90;;;;;;4147554;34;20714;-85
2020/12/02 15:09:34;;;;;;;21.13;9.77;;;1.90;99.90;;;;;;4137584;34;20221;-84
2020/12/02 15:12:06;;;;;;;16.67;9.70;;;1.90;99.90;;;;;;4149911;34;20320;-84
2020/12/02 15:14:35;;;;;;;15.27;9.80;;;1.80;99.90;;;;;;4150820;27;20313;-84
2020/12/02 15:17:12;;;;;;;16.87;10.37;;;1.80;99.90;;;;;;4150361;34;20317;-85
2020/12/02 15:19:38;;;;;;;17.00;9.60;;;1.80;99.90;;;;;;4149206;34;20358;-84
2020/12/02 15:22:11;;;;;;;17.50;9.50;;;1.80;99.90;;;;;;4148548;27;20292;-84
2020/12/02 15:24:37;;;;;;;15.67;9.20;;;1.70;99.90;;;;;;4150394;27;20313;-84
2020/12/02 15:27:19;;;;;;;16.90;10.00;;;1.60;99.90;;;;;;4140058;34;20304;-84
2020/12/02 15:29:45;;;;;;;19.47;10.73;;;1.60;99.90;;;;;;4135276;34;20333;-84
2020/12/02 15:32:25;;;;;;;14.47;9.17;;;1.60;99.90;;;;;;4148787;34;20313;-85
2020/12/02 15:34:53;;;;;;;16.93;11.50;;;1.50;99.90;;;;;;4151022;26;20811;-85
2020/12/02 15:37:25;;;;;;;17.77;10.37;;;1.40;99.90;;;;;;4158956;26;20317;-84
2020/12/02 15:40:25;;;;;;;17.80;9.87;;;1.30;99.90;;;;;;4141470;34;20327;-84
2020/12/02 15:43:14;;;;;;;15.37;9.20;;;1.30;99.90;;;;;;4150820;34;20333;-84
2020/12/02 15:45:55;;;;;;;17.80;10.60;;;1.30;99.90;;;;;;4152012;34;20309;-84
2020/12/02 15:48:32;;;;;;;22.00;10.50;;;1.30;99.90;;;;;;4148475;34;20313;-84
2020/12/02 15:51:18;;;;;;;18.50;10.40;;;1.30;99.90;;;;;;4152142;26;20370;-84
2020/12/02 15:54:13;;;;;;;21.70;11.80;;;1.30;99.90;;;;;;4153266;26;20351;-84
2020/12/02 15:56:59;;;;;;;20.10;10.60;;;1.30;99.90;;;;;;4154982;26;20307;-84
2020/12/02 15:59:33;;;;;;;20.43;10.40;;;1.30;99.90;;;;;;4143313;34;20715;-84
2020/12/02 16:02:07;;;;;;;16.67;10.80;;;1.30;99.90;;;;;;4153303;26;20313;-84
2020/12/02 16:04:32;;;;;;;17.30;10.10;;;1.30;99.90;;;;;;4151435;34;20285;-84
2020/12/02 16:07:22;;;;;;;17.50;10.13;;;1.30;99.90;;;;;;4150919;34;20312;-84
2020/12/02 16:09:56;;;;;;;16.90;9.83;;;1.30;99.90;;;;;;4152753;34;20222;-84
2020/12/02 16:12:22;;;;;;;23.90;11.90;;;1.30;99.90;;;;;;4155089;26;20312;-85
2020/12/02 16:14:49;;;;;;;18.20;10.80;;;1.30;99.90;;;;;;4150078;34;20304;-85
2020/12/02 16:17:15;;;;;;;18.00;10.80;;;1.30;99.90;;;;;;4151460;34;20727;-84
2020/12/02 16:19:45;;;;;;;17.57;10.63;;;1.40;99.90;;;;;;4150456;26;20694;-84
2020/12/02 16:22:28;;;;;;;18.90;10.93;;;1.30;99.90;;;;;;4151197;26;20325;-84
2020/12/02 16:24:59;;;;;;;18.67;10.90;;;1.30;99.90;;;;;;4149568;34;20316;-85
2020/12/02 16:27:33;;;;;;;21.20;12.00;;;1.30;99.90;;;;;;4163667;26;20281;-84
2020/12/02 16:29:58;;;;;;;20.07;11.27;;;1.30;99.90;;;;;;4149006;34;20301;-84
2020/12/02 16:32:24;;;;;;;21.00;11.87;;;1.30;99.90;;;;;;4147774;34;20361;-84
2020/12/02 16:34:50;;;;;;;21.23;12.13;;;1.30;99.90;;;;;;4149964;34;20335;-84
2020/12/02 16:37:36;;;;;;;20.10;11.60;;;1.20;99.90;;;;;;4150918;34;20236;-85
2020/12/02 16:40:13;;;;;;;20.63;12.47;;;1.20;99.90;;;;;;4153436;26;20248;-84
2020/12/02 16:43:33;;;;;;;26.67;12.60;;;1.20;99.90;;;;;;4149246;34;20344;-84
2020/12/02 16:46:12;;;;;;;19.30;12.50;;;1.20;99.90;;;;;;4124455;27;20304;-84
2020/12/02 16:49:11;;;;;;;22.33;12.17;;;1.30;99.90;;;;;;4150779;34;20312;-84
2020/12/02 16:51:41;;;;;;;26.10;13.13;;;1.30;99.90;;;;;;4150471;34;20327;-84
2020/12/02 16:54:19;;;;;;;21.87;11.43;;;1.30;99.90;;;;;;4150449;34;20277;-85
2020/12/02 16:57:13;;;;;;;26.73;13.50;;;1.30;99.90;;;;;;4150846;34;20646;-84
2020/12/02 16:59:51;;;;;;;24.10;11.97;;;1.30;99.90;;;;;;4153359;26;20293;-85
2020/12/02 17:02:45;;;;;;;24.63;12.53;;;1.30;99.90;;;;;;4150861;34;20337;-84
2020/12/02 17:05:25;;;;;;;20.70;12.83;;;1.20;99.90;;;;;;4149984;34;20795;-84
2020/12/02 17:07:52;;;;;;;20.30;11.67;;;1.20;99.90;;;;;;4155333;26;20301;-84
2020/12/02 17:10:24;;;;;;;22.30;12.53;;;1.20;99.90;;;;;;4148698;34;20290;-84
2020/12/02 17:13:05;;;;;;;21.10;11.90;;;1.30;99.90;;;;;;4139556;26;20297;-84
2020/12/02 17:15:58;;;;;;;19.83;11.87;;;1.30;99.90;;;;;;4149512;34;20494;-84
2020/12/02 17:18:48;;;;;;;19.13;11.03;;;1.30;99.90;;;;;;4155414;26;20301;-84
2020/12/02 17:21:46;;;;;;;24.83;13.63;;;1.30;99.90;;;;;;4135390;26;20330;-84
2020/12/02 17:24:30;;;;;;;24.30;13.50;;;1.20;99.90;;;;;;4137415;27;20333;-85
2020/12/02 17:26:58;;;;;;;30.07;15.57;;;1.20;99.90;;;;;;4151843;26;20315;-83
2020/12/02 17:29:59;;;;;;;30.50;16.57;;;1.10;99.90;;;;;;4149697;34;20305;-84
2020/12/02 17:32:55;;;;;;;27.90;16.67;;;1.10;99.90;;;;;;4111036;27;20298;-84
2020/12/02 17:35:36;;;;;;;31.77;16.93;;;1.10;99.90;;;;;;4110392;35;20362;-84
2020/12/02 17:38:24;;;;;;;27.03;14.33;;;1.00;99.90;;;;;;4108268;35;20329;-85
2020/12/02 17:41:14;;;;;;;22.33;12.33;;;1.10;99.90;;;;;;4113710;27;20291;-84
2020/12/02 17:43:59;;;;;;;21.07;12.57;;;1.20;99.90;;;;;;4111352;27;20356;-84
2020/12/02 17:46:31;;;;;;;19.50;11.77;;;1.20;99.90;;;;;;4110165;35;20306;-84
2020/12/02 17:49:04;;;;;;;26.87;14.17;;;1.20;99.90;;;;;;4107246;34;20677;-84
2020/12/02 17:52:06;;;;;;;23.60;13.27;;;1.10;99.90;;;;;;4109200;35;20851;-84
2020/12/02 17:54:35;;;;;;;26.37;13.70;;;1.10;99.90;;;;;;4115688;27;20710;-84
2020/12/02 17:57:06;;;;;;;21.20;12.60;;;1.10;99.90;;;;;;4113277;27;20329;-86
2020/12/02 17:59:39;;;;;;;23.80;12.60;;;1.10;99.90;;;;;;4097498;34;20394;-85
2020/12/02 18:02:49;;;;;;;28.43;14.40;;;1.10;99.90;;;;;;4112701;35;20298;-85
2020/12/02 18:05:21;;;;;;;63.10;36.23;;;1.20;99.90;;;;;;4064426;27;20508;-84
2020/12/02 18:08:11;;;;;;;92.23;44.30;;;1.20;99.90;;;;;;4120076;27;20283;-84
2020/12/02 18:10:57;;;;;;;47.27;28.07;;;1.20;99.90;;;;;;4109112;35;20302;-84
2020/12/02 18:13:44;;;;;;;26.80;16.27;;;1.20;99.90;;;;;;4109313;35;20388;-82
2020/12/02 18:16:22;;;;;;;21.73;13.73;;;1.20;99.90;;;;;;4116708;27;20760;-83
2020/12/02 18:18:53;;;;;;;25.20;13.60;;;1.20;99.90;;;;;;4112958;27;20337;-84
2020/12/02 18:21:44;;;;;;;28.77;16.63;;;1.20;99.90;;;;;;4118335;27;20334;-83
2020/12/02 18:24:43;;;;;;;23.50;14.00;;;1.20;99.90;;;;;;4112871;27;20334;-82
2020/12/02 18:27:53;;;;;;;26.67;13.03;;;1.20;99.90;;;;;;4110283;35;20712;-83
2020/12/02 18:30:40;;;;;;;24.70;15.70;;;1.10;99.90;;;;;;4109359;35;20325;-84
2020/12/02 18:33:35;;;;;;;25.20;16.33;;;1.10;99.90;;;;;;4108785;35;20291;-84
2020/12/02 18:36:06;;;;;;;23.47;14.90;;;1.10;99.90;;;;;;4113158;27;20327;-83
2020/12/02 18:38:34;;;;;;;23.90;14.83;;;1.10;99.90;;;;;;4116061;27;20316;-84
2020/12/02 18:41:17;;;;;;;29.20;15.57;;;1.10;99.90;;;;;;4116823;27;20290;-85
2020/12/02 18:43:56;;;;;;;27.17;16.20;;;1.10;99.90;;;;;;4108637;27;20400;-84
2020/12/02 18:46:39;;;;;;;26.63;15.07;;;1.00;99.90;;;;;;4111234;27;20324;-84
2020/12/02 18:49:24;;;;;;;23.63;14.37;;;1.00;99.90;;;;;;4114520;27;20382;-84
2020/12/02 18:51:50;;;;;;;29.17;16.90;;;1.10;99.90;;;;;;4111556;34;20332;-85
2020/12/02 18:54:16;;;;;;;28.43;16.23;;;1.10;99.90;;;;;;4110321;35;20356;-84
2020/12/02 18:56:45;;;;;;;28.83;16.50;;;1.10;99.90;;;;;;4110580;27;20358;-84
2020/12/02 18:59:28;;;;;;;24.17;13.77;;;1.10;99.90;;;;;;4117205;27;20333;-84
2020/12/02 19:01:55;;;;;;;21.87;12.50;;;1.10;99.90;;;;;;4111990;35;20321;-84
2020/12/02 19:04:27;;;;;;;26.20;14.47;;;1.10;99.90;;;;;;4094792;34;20335;-84
2020/12/02 19:07:15;;;;;;;27.57;14.70;;;1.10;99.90;;;;;;4097294;27;20337;-84
2020/12/02 19:09:43;;;;;;;29.07;17.13;;;1.10;99.90;;;;;;4105443;27;20375;-85
2020/12/02 19:12:23;;;;;;;24.67;14.70;;;1.10;99.90;;;;;;4108928;35;20295;-84
2020/12/02 19:15:03;;;;;;;26.13;13.90;;;1.00;99.90;;;;;;4109741;35;20306;-84
2020/12/02 19:18:03;;;;;;;28.60;15.70;;;1.00;99.90;;;;;;4111582;34;20301;-86
2020/12/02 19:20:33;;;;;;;24.87;14.93;;;0.90;99.90;;;;;;4109805;35;20318;-85
2020/12/02 19:23:36;;;;;;;25.03;16.10;;;0.90;99.90;;;;;;4110309;35;20313;-85
2020/12/02 19:26:33;;;;;;;27.83;14.80;;;0.90;99.90;;;;;;4113511;27;20731;-85
2020/12/02 19:29:04;;;;;;;22.30;14.00;;;0.90;99.90;;;;;;4113525;27;20365;-84
2020/12/02 19:32:10;;;;;;;25.87;13.70;;;0.90;99.90;;;;;;4113027;27;20745;-85
2020/12/02 19:34:54;;;;;;;27.00;15.43;;;0.90;99.90;;;;;;4117071;27;20688;-83
2020/12/02 19:38:08;;;;;;;30.43;15.33;;;0.90;99.90;;;;;;4116491;27;20326;-84
2020/12/02 19:40:59;;;;;;;28.43;15.30;;;0.90;99.90;;;;;;4076976;27;20852;-86
2020/12/02 19:43:45;;;;;;;29.20;15.00;;;0.80;99.90;;;;;;4113151;35;20339;-87
2020/12/02 19:46:41;;;;;;;29.97;16.27;;;0.80;99.90;;;;;;4114018;35;20310;-88
2020/12/02 19:49:10;;;;;;;33.90;17.43;;;0.80;99.90;;;;;;4121655;27;20295;-86
2020/12/02 19:51:41;;;;;;;28.70;16.13;;;0.80;99.90;;;;;;4117406;27;20337;-85
2020/12/02 19:54:28;;;;;;;30.73;17.60;;;0.90;99.90;;;;;;4114847;27;20310;-84
2020/12/02 19:57:03;;;;;;;29.57;15.50;;;0.90;99.90;;;;;;4117082;27;20800;-83
2020/12/02 19:59:43;;;;;;;29.93;16.90;;;0.90;99.90;;;;;;4112939;27;20383;-83
2020/12/02 20:02:15;;;;;;;28.23;15.70;;;0.90;99.90;;;;;;4113523;27;20310;-83
2020/12/02 20:05:18;;;;;;;30.70;17.43;;;0.90;99.90;;;;;;4111145;35;20668;-84
2020/12/02 20:08:03;;;;;;;28.60;16.30;;;0.80;99.90;;;;;;4110309;35;20294;-83
2020/12/02 20:10:49;;;;;;;27.40;15.70;;;0.90;99.90;;;;;;4110994;34;20318;-83
2020/12/02 20:13:35;;;;;;;30.73;15.50;;;0.90;99.90;;;;;;4102682;27;20325;-82
2020/12/02 20:16:28;;;;;;;31.83;17.60;;;0.80;99.90;;;;;;4110459;35;20458;-83
2020/12/02 20:19:21;;;;;;;27.97;16.37;;;0.80;99.90;;;;;;4113188;27;20385;-84
2020/12/02 20:21:53;;;;;;;27.87;14.97;;;0.90;99.90;;;;;;4120189;27;20867;-84
2020/12/02 20:24:40;;;;;;;29.17;16.70;;;1.00;99.90;;;;;;4114752;27;20318;-84
2020/12/02 20:27:14;;;;;;;25.20;14.37;;;1.00;99.90;;;;;;4119380;27;20314;-83
2020/12/02 20:29:47;;;;;;;36.40;18.93;;;0.90;99.90;;;;;;4109994;35;20317;-82
2020/12/02 20:32:30;;;;;;;29.70;16.93;;;0.90;99.90;;;;;;4110717;35;20340;-83
2020/12/02 20:35:03;;;;;;;31.00;17.60;;;1.00;99.90;;;;;;4117655;27;20306;-83
2020/12/02 20:37:33;;;;;;;26.40;15.13;;;0.90;99.90;;;;;;4110610;35;20322;-82
2020/12/02 20:40:01;;;;;;;28.87;15.80;;;0.90;99.90;;;;;;4115903;27;20302;-84
2020/12/02 20:42:31;;;;;;;30.23;17.20;;;0.90;99.90;;;;;;4119153;27;20306;-83
2020/12/02 20:44:58;;;;;;;30.07;15.50;;;0.90;99.90;;;;;;4116190;27;20652;-83
2020/12/02 20:47:58;;;;;;;28.70;16.20;;;0.80;99.90;;;;;;4115479;27;20835;-83
2020/12/02 20:51:15;;;;;;;29.27;16.27;;;0.80;99.90;;;;;;4105508;35;20618;-83
2020/12/02 20:53:43;;;;;;;28.57;15.20;;;0.80;99.90;;;;;;4109552;35;20302;-83
2020/12/02 20:56:35;;;;;;;26.40;15.70;;;0.80;99.90;;;;;;4110224;27;20340;-82
2020/12/02 20:59:13;;;;;;;31.07;17.60;;;0.80;99.90;;;;;;4111457;27;20416;-83
2020/12/02 21:01:40;;;;;;;25.13;14.50;;;0.80;99.90;;;;;;4117144;27;20704;-83
2020/12/02 21:04:11;;;;;;;27.47;16.93;;;0.90;99.90;;;;;;4111612;34;20314;-82
2020/12/02 21:06:37;;;;;;;27.03;15.20;;;0.90;99.90;;;;;;4116683;27;20689;-82
2020/12/02 21:09:08;;;;;;;33.60;15.63;;;0.90;99.90;;;;;;4111515;35;20326;-82
2020/12/02 21:11:33;;;;;;;32.70;17.87;;;0.80;99.90;;;;;;4111622;35;20604;-82
2020/12/02 21:13:59;;;;;;;33.83;18.50;;;0.80;99.90;;;;;;4110484;35;20336;-82
2020/12/02 21:16:43;;;;;;;30.63;17.00;;;0.80;99.90;;;;;;4098657;35;20812;-82
2020/12/02 21:19:27;;;;;;;33.67;18.30;;;0.80;99.90;;;;;;4100257;27;20330;-82
2020/12/02 21:22:13;;;;;;;28.77;19.63;;;0.80;99.90;;;;;;4110731;35;20310;-82
2020/12/02 21:25:00;;;;;;;27.80;15.70;;;0.80;99.90;;;;;;4099576;35;20306;-82
2020/12/02 21:27:50;;;;;;;33.87;17.50;;;0.90;99.90;;;;;;4104157;27;20902;-81
2020/12/02 21:30:22;;;;;;;31.37;17.30;;;0.90;99.90;;;;;;4119454;27;20313;-81
2020/12/02 21:33:09;;;;;;;29.50;17.33;;;1.00;99.90;;;;;;4110355;35;20315;-82
2020/12/02 21:36:01;;;;;;;29.27;17.10;;;0.90;99.90;;;;;;4112474;27;20306;-82
2020/12/02 21:39:07;;;;;;;29.93;15.87;;;0.90;99.90;;;;;;4111633;35;20385;-82
2020/12/02 21:41:43;;;;;;;30.07;15.27;;;0.80;99.90;;;;;;4110876;35;20298;-82
2020/12/02 21:44:40;;;;;;;33.67;17.10;;;0.80;99.90;;;;;;4123985;27;20431;-82
2020/12/02 21:47:15;;;;;;;31.50;16.20;;;0.90;99.90;;;;;;4121143;27;20306;-82
2020/12/02 21:50:11;;;;;;;35.23;18.80;;;0.80;99.90;;;;;;4114097;27;20432;-84
2020/12/02 21:53:06;;;;;;;34.47;16.70;;;0.80;99.90;;;;;;4110032;35;20350;-83
2020/12/02 21:59:30;;;;;;;31.10;16.30;;;0.80;99.90;;;;;;4116737;27;20360;-84
2020/12/02 22:02:07;;;;;;;34.50;18.33;;;0.80;99.90;;;;;;4110430;34;20399;-83
2020/12/02 22:05:00;;;;;;;35.47;17.77;;;0.80;99.90;;;;;;4108555;34;20318;-83